createdAt,value
2019-05-09T00:01:15.686Z,60.46
2019-05-09T00:03:45.541Z,60.77
2019-05-09T00:06:15.180Z,60.71
2019-05-09T00:08:45.006Z,61.04
2019-05-09T00:11:14.984Z,61.44
2019-05-09T00:13:44.688Z,61.12
2019-05-09T00:16:14.767Z,61.17
2019-05-09T00:18:44.569Z,61.15
2019-05-09T00:21:19.319Z,61.54
2019-05-09T00:23:49.126Z,61.15
2019-05-09T00:26:18.801Z,61.08
2019-05-09T00:28:53.339Z,61.23
2019-05-09T00:31:43.809Z,61.59
2019-05-09T00:34:18.956Z,62.15
2019-05-09T00:36:48.651Z,62.79
2019-05-09T00:39:18.372Z,63.10
2019-05-09T00:41:47.875Z,63.14
2019-05-09T00:44:23.313Z,63.60
2019-05-09T00:47:05.497Z,63.77
2019-05-09T00:49:34.938Z,63.97
2019-05-09T00:52:04.429Z,64.29
2019-05-09T00:54:34.048Z,64.02
2019-05-09T00:57:03.451Z,64.32
2019-05-09T00:59:33.344Z,64.06
2019-05-09T01:02:03.959Z,64.55
2019-05-09T01:04:33.691Z,64.93
2019-05-09T01:07:03.553Z,65.26
2019-05-09T01:09:33.622Z,65.27
2019-05-09T01:12:04.045Z,65.04
2019-05-09T01:14:34.167Z,65.70
2019-05-09T01:17:04.365Z,66.64
2019-05-09T01:19:34.047Z,67.04
2019-05-09T01:22:03.899Z,67.42
2019-05-09T01:24:33.929Z,67.89
2019-05-09T01:27:03.888Z,68.49
2019-05-09T01:29:33.883Z,68.58
2019-05-09T01:32:07.411Z,68.49
2019-05-09T01:34:37.445Z,68.09
2019-05-09T01:37:08.226Z,68.33
2019-05-09T01:39:38.131Z,68.74
2019-05-09T01:42:07.639Z,68.74
2019-05-09T01:44:37.040Z,69.12
2019-05-09T01:47:06.854Z,69.56
2019-05-09T01:49:36.256Z,69.76
2019-05-09T01:52:06.162Z,69.53
2019-05-09T01:54:37.699Z,69.27
2019-05-09T01:57:07.501Z,69.97
2019-05-09T01:59:36.912Z,70.76
2019-05-09T02:02:08.748Z,70.18
2019-05-09T02:04:38.533Z,70.41
2019-05-09T02:07:08.388Z,70.85
2019-05-09T02:09:38.105Z,71.34
2019-05-09T02:12:07.772Z,71.61
2019-05-09T02:14:44.165Z,71.56
2019-05-09T02:17:33.462Z,71.67
2019-05-09T02:20:04.008Z,71.42
2019-05-09T02:22:34.496Z,72.00
2019-05-09T02:25:09.331Z,72.25
2019-05-09T02:27:38.724Z,72.69
2019-05-09T02:30:10.203Z,73.07
2019-05-09T02:32:40.029Z,72.40
2019-05-09T02:35:10.200Z,71.97
2019-05-09T02:37:40.000Z,71.93
2019-05-09T02:40:10.630Z,72.17
2019-05-09T02:42:40.483Z,72.28
2019-05-09T02:45:10.653Z,72.08
2019-05-09T02:47:40.534Z,71.92
2019-05-09T02:50:10.699Z,72.12
2019-05-09T02:52:40.420Z,72.39
2019-05-09T02:55:10.871Z,72.89
2019-05-09T02:57:40.839Z,73.40
2019-05-09T03:00:20.260Z,73.21
2019-05-09T03:03:03.822Z,73.94
2019-05-09T03:05:33.553Z,73.56
2019-05-09T03:08:03.187Z,73.28
2019-05-09T03:10:32.862Z,73.42
2019-05-09T03:13:02.516Z,73.75
2019-05-09T03:15:32.843Z,73.65
2019-05-09T03:18:02.244Z,73.49
2019-05-09T03:20:53.669Z,73.64
2019-05-09T03:23:23.181Z,73.88
2019-05-09T03:25:52.895Z,74.30
2019-05-09T03:28:44.940Z,74.26
2019-05-09T03:31:19.506Z,73.77
2019-05-09T03:33:50.023Z,73.50
2019-05-09T03:36:18.745Z,73.74
2019-05-09T03:38:48.142Z,73.75
2019-05-09T03:41:17.917Z,74.13
2019-05-09T03:43:48.290Z,74.42
2019-05-09T03:46:34.417Z,73.84
2019-05-09T03:49:12.640Z,73.62
2019-05-09T03:51:42.363Z,73.88
2019-05-09T03:54:12.056Z,73.59
2019-05-09T03:56:47.815Z,73.29
2019-05-09T03:59:17.674Z,72.78
2019-05-09T04:01:50.144Z,71.61
2019-05-09T04:04:19.555Z,71.02
2019-05-09T04:06:49.369Z,70.70
2019-05-09T04:09:19.143Z,70.35
2019-05-09T04:11:48.832Z,69.77
2019-05-09T04:14:21.912Z,68.98
2019-05-09T04:16:51.644Z,68.90
2019-05-09T04:19:21.411Z,68.99
2019-05-09T04:21:51.263Z,68.25
2019-05-09T04:24:21.248Z,68.36
2019-05-09T04:26:59.185Z,68.11
2019-05-09T04:29:28.899Z,67.49
2019-05-09T04:31:58.301Z,67.09
2019-05-09T04:34:27.853Z,65.84
2019-05-09T04:36:57.875Z,65.93
2019-05-09T04:39:28.350Z,66.18
2019-05-09T04:42:03.638Z,65.73
2019-05-09T04:44:37.363Z,65.36
2019-05-09T04:47:08.781Z,64.88
2019-05-09T04:49:41.145Z,64.36
2019-05-09T04:52:09.594Z,63.97
2019-05-09T04:54:39.340Z,63.44
2019-05-09T04:57:08.873Z,62.79
2019-05-09T04:59:38.586Z,62.36
2019-05-09T05:02:27.534Z,62.04
2019-05-09T05:04:58.545Z,62.04
2019-05-09T05:07:28.847Z,61.46
2019-05-09T05:09:58.686Z,61.70
2019-05-09T05:12:28.561Z,61.40
2019-05-09T05:14:58.230Z,61.18
2019-05-09T05:17:30.486Z,60.26
2019-05-09T05:20:00.249Z,61.28
2019-05-09T05:22:47.857Z,61.99
2019-05-09T05:25:17.913Z,61.70
2019-05-09T05:27:47.602Z,61.47
2019-05-09T05:30:18.074Z,60.28
2019-05-09T05:32:57.846Z,59.82
2019-05-09T05:35:49.440Z,59.58
2019-05-09T05:38:19.137Z,59.60
2019-05-09T05:40:49.956Z,59.31
2019-05-09T05:43:19.747Z,58.96
2019-05-09T05:46:08.358Z,59.00
2019-05-09T05:48:39.335Z,59.09
2019-05-09T05:51:09.169Z,58.67
2019-05-09T05:53:38.856Z,58.19
2019-05-09T05:56:08.602Z,57.37
2019-05-09T05:58:38.703Z,56.79
2019-05-09T06:01:08.482Z,57.23
2019-05-09T06:03:38.131Z,56.63
2019-05-09T06:06:08.809Z,56.76
2019-05-09T06:08:38.406Z,56.56
2019-05-09T06:11:11.882Z,55.75
2019-05-09T06:13:53.244Z,56.22
2019-05-09T06:16:10.841Z,56.03
2019-05-09T06:18:40.609Z,55.71
2019-05-09T06:21:10.126Z,56.18
2019-05-09T06:23:39.783Z,55.68
2019-05-09T06:26:10.323Z,54.89
2019-05-09T06:28:40.119Z,54.35
2019-05-09T06:31:09.826Z,53.78
2019-05-09T06:33:46.526Z,52.71
2019-05-09T06:36:11.238Z,52.68
2019-05-09T06:38:41.017Z,53.58
2019-05-09T06:41:12.266Z,53.59
2019-05-09T06:43:43.141Z,53.15
2019-05-09T06:46:40.645Z,52.52
2019-05-09T06:49:24.346Z,53.14
2019-05-09T06:51:44.839Z,52.54
2019-05-09T06:54:14.294Z,53.28
2019-05-09T06:56:44.089Z,53.46
2019-05-09T06:59:13.695Z,53.22
2019-05-09T07:02:08.442Z,51.16
2019-05-09T07:04:54.028Z,50.25
2019-05-09T07:07:44.526Z,52.43
2019-05-09T07:10:14.574Z,52.04
2019-05-09T07:12:43.992Z,51.52
2019-05-09T07:15:13.622Z,50.52
2019-05-09T07:17:43.276Z,51.47
2019-05-09T07:20:13.070Z,49.92
2019-05-09T07:22:48.125Z,50.20
2019-05-09T07:25:47.834Z,49.54
2019-05-09T07:28:18.115Z,48.99
2019-05-09T07:31:11.683Z,48.95
2019-05-09T07:34:03.086Z,47.74
2019-05-09T07:36:32.648Z,47.75
2019-05-09T07:39:02.419Z,47.03
2019-05-09T07:41:33.737Z,46.96
2019-05-09T07:44:03.605Z,47.16
2019-05-09T07:46:34.739Z,46.48
2019-05-09T07:49:08.627Z,46.05
2019-05-09T07:51:38.340Z,46.43
2019-05-09T07:54:20.646Z,47.14
2019-05-09T07:56:39.533Z,46.74
2019-05-09T07:59:09.196Z,47.34
2019-05-09T08:01:38.815Z,46.88
2019-05-09T08:04:08.545Z,46.96
2019-05-09T08:06:38.181Z,45.90
2019-05-09T08:09:08.647Z,45.84
2019-05-09T08:11:41.209Z,45.27
2019-05-09T08:14:11.416Z,45.64
2019-05-09T08:16:41.017Z,45.46
2019-05-09T08:19:11.497Z,44.89
2019-05-09T08:21:41.703Z,44.64
2019-05-09T08:24:11.925Z,43.92
2019-05-09T08:26:41.823Z,43.08
2019-05-09T08:29:11.662Z,42.59
2019-05-09T08:31:41.448Z,41.94
2019-05-09T08:34:11.291Z,43.42
2019-05-09T08:36:40.829Z,43.63
2019-05-09T08:39:10.444Z,43.50
2019-05-09T08:41:40.178Z,42.55
2019-05-09T08:44:10.049Z,42.67
2019-05-09T08:46:39.806Z,42.27
2019-05-09T08:49:09.655Z,41.83
2019-05-09T08:51:55.662Z,42.27
2019-05-09T08:54:34.793Z,41.66
2019-05-09T08:57:04.323Z,42.00
2019-05-09T08:59:34.186Z,41.50
2019-05-09T09:02:15.726Z,41.33
2019-05-09T09:04:38.157Z,40.84
2019-05-09T09:07:08.365Z,40.46
2019-05-09T09:09:38.350Z,39.84
2019-05-09T09:12:25.229Z,39.14
2019-05-09T09:14:39.845Z,38.12
2019-05-09T09:17:09.591Z,36.92
2019-05-09T09:19:39.330Z,35.61
2019-05-09T09:22:09.217Z,35.09
2019-05-09T09:24:39.046Z,34.66
2019-05-09T09:27:08.878Z,31.83
2019-05-09T09:29:38.680Z,30.32
2019-05-09T09:32:08.637Z,29.69
2019-05-09T09:34:38.618Z,27.57
2019-05-09T09:37:11.472Z,28.69
2019-05-09T09:39:44.559Z,27.31
2019-05-09T09:42:11.425Z,26.82
2019-05-09T09:44:41.089Z,26.05
2019-05-09T09:47:11.152Z,24.83
2019-05-09T09:49:40.755Z,24.66
2019-05-09T09:52:10.739Z,24.25
2019-05-09T09:54:40.287Z,23.26
2019-05-09T09:57:10.198Z,23.34
2019-05-09T09:59:48.460Z,24.10
2019-05-09T10:02:19.848Z,23.96
2019-05-09T10:04:49.755Z,25.54
2019-05-09T10:07:19.641Z,25.54
2019-05-09T10:09:49.680Z,26.81
2019-05-09T10:12:19.294Z,28.06
2019-05-09T10:14:58.802Z,28.90
2019-05-09T10:17:49.804Z,29.78
2019-05-09T10:20:32.860Z,28.52
2019-05-09T10:23:11.037Z,29.37
2019-05-09T10:25:34.212Z,30.02
2019-05-09T10:28:04.140Z,31.33
2019-05-09T10:30:38.008Z,30.19
2019-05-09T10:33:09.243Z,30.36
2019-05-09T10:35:39.159Z,30.51
2019-05-09T10:38:09.224Z,31.37
2019-05-09T10:40:40.360Z,30.96
2019-05-09T10:43:33.985Z,30.17
2019-05-09T10:46:19.335Z,29.46
2019-05-09T10:48:54.959Z,28.03
2019-05-09T10:51:24.571Z,26.42
2019-05-09T10:53:54.370Z,25.29
2019-05-09T10:56:24.195Z,24.65
2019-05-09T10:58:53.981Z,23.83
2019-05-09T11:01:23.519Z,22.38
2019-05-09T11:03:53.273Z,23.63
2019-05-09T11:06:22.869Z,25.08
2019-05-09T11:08:52.594Z,23.58
2019-05-09T11:11:22.614Z,24.93
2019-05-09T11:13:52.160Z,23.72
2019-05-09T11:16:22.061Z,23.38
2019-05-09T11:18:51.771Z,23.05
2019-05-09T11:21:21.584Z,23.33
2019-05-09T11:23:51.116Z,23.64
2019-05-09T11:26:20.639Z,22.36
2019-05-09T11:28:50.508Z,21.20
2019-05-09T11:31:20.563Z,20.33
2019-05-09T11:33:50.463Z,19.76
2019-05-09T11:36:21.218Z,19.23
2019-05-09T11:38:51.183Z,19.11
2019-05-09T11:41:21.057Z,19.23
2019-05-09T11:43:52.084Z,18.36
2019-05-09T11:46:21.762Z,18.16
2019-05-09T11:48:51.289Z,18.48
2019-05-09T11:51:22.881Z,19.83
2019-05-09T11:53:52.111Z,18.43
2019-05-09T11:56:22.004Z,19.36
2019-05-09T11:58:51.488Z,20.82
2019-05-09T12:01:21.054Z,21.12
2019-05-09T12:03:52.390Z,20.25
2019-05-09T12:06:22.366Z,20.25
2019-05-09T12:08:51.851Z,21.17
2019-05-09T12:11:21.266Z,20.76
2019-05-09T12:13:50.685Z,20.86
2019-05-09T12:16:20.560Z,20.98
2019-05-09T12:18:50.256Z,21.97
2019-05-09T12:21:19.968Z,24.34
2019-05-09T12:23:50.065Z,23.33
2019-05-09T12:26:19.617Z,23.50
2019-05-09T12:28:49.492Z,24.08
2019-05-09T12:31:19.198Z,25.69
2019-05-09T12:33:48.749Z,25.48
2019-05-09T12:36:19.142Z,26.85
2019-05-09T12:38:50.224Z,27.81
2019-05-09T12:41:20.208Z,27.67
2019-05-09T12:43:50.003Z,27.80
2019-05-09T12:46:19.746Z,29.22
2019-05-09T12:48:49.572Z,28.86
2019-05-09T12:51:19.351Z,30.45
2019-05-09T12:53:49.138Z,30.83
2019-05-09T12:56:18.970Z,31.06
2019-05-09T12:58:48.734Z,31.63
2019-05-09T13:01:19.018Z,31.68
2019-05-09T13:03:48.771Z,33.19
2019-05-09T13:06:19.955Z,34.16
2019-05-09T13:08:50.277Z,33.89
2019-05-09T13:11:20.262Z,34.00
2019-05-09T13:13:50.095Z,35.10
2019-05-09T13:16:49.030Z,36.26
2019-05-09T13:19:14.847Z,35.34
2019-05-09T13:21:44.250Z,35.17
2019-05-09T13:24:13.720Z,35.73
2019-05-09T13:26:44.874Z,35.75
2019-05-09T13:29:14.666Z,35.93
2019-05-09T13:31:44.367Z,36.42
2019-05-09T13:34:14.237Z,36.15
2019-05-09T13:36:44.160Z,36.56
2019-05-09T13:39:13.898Z,36.85
2019-05-09T13:41:43.689Z,37.17
2019-05-09T13:44:14.140Z,37.44
2019-05-09T13:46:44.196Z,37.66
2019-05-09T13:49:15.600Z,37.81
2019-05-09T13:51:51.031Z,37.00
2019-05-09T13:54:18.472Z,36.71
2019-05-09T13:56:54.978Z,36.31
2019-05-09T13:59:19.927Z,36.65
2019-05-09T14:01:49.713Z,37.09
2019-05-09T14:04:19.276Z,37.01
2019-05-09T14:06:49.099Z,37.97
2019-05-09T14:09:20.144Z,38.11
2019-05-09T14:11:49.994Z,39.08
2019-05-09T14:14:19.588Z,38.38
2019-05-09T14:16:49.330Z,38.48
2019-05-09T14:19:38.592Z,39.65
2019-05-09T14:21:50.014Z,39.80
2019-05-09T14:24:19.558Z,40.85
2019-05-09T14:26:49.219Z,41.12
2019-05-09T14:29:20.467Z,42.45
2019-05-09T14:31:50.553Z,43.48
2019-05-09T14:34:20.327Z,43.79
2019-05-09T14:36:50.118Z,45.21
2019-05-09T14:39:19.829Z,45.86
2019-05-09T14:41:49.559Z,46.11
2019-05-09T14:44:19.004Z,45.83
2019-05-09T14:46:48.898Z,46.29
2019-05-09T14:49:18.778Z,45.14
2019-05-09T14:51:49.982Z,44.08
2019-05-09T14:54:19.989Z,43.78
2019-05-09T14:56:49.955Z,44.16
2019-05-09T14:59:19.749Z,42.99
2019-05-09T15:01:49.794Z,42.99
2019-05-09T15:04:19.623Z,41.82
2019-05-09T15:06:49.449Z,42.81
2019-05-09T15:09:18.954Z,43.06
2019-05-09T15:11:48.860Z,43.31
2019-05-09T15:14:18.419Z,44.31
2019-05-09T15:16:48.682Z,45.70
2019-05-09T15:19:18.668Z,47.04
2019-05-09T15:21:48.984Z,47.12
2019-05-09T15:24:19.318Z,47.35
2019-05-09T15:26:49.405Z,48.22
2019-05-09T15:29:18.841Z,48.47
2019-05-09T15:31:54.749Z,48.53
2019-05-09T15:34:19.918Z,48.92
2019-05-09T15:36:49.333Z,48.80
2019-05-09T15:39:18.763Z,48.92
2019-05-09T15:41:48.300Z,49.81
2019-05-09T15:44:18.642Z,49.82
2019-05-09T15:46:52.739Z,50.24
2019-05-09T15:49:22.159Z,53.39
2019-05-09T15:51:51.685Z,54.22
2019-05-09T15:54:21.188Z,52.48
2019-05-09T15:56:50.993Z,52.61
2019-05-09T15:59:20.650Z,52.13
2019-05-09T16:01:50.448Z,52.85
2019-05-09T16:04:20.336Z,53.40
2019-05-09T16:06:51.621Z,53.71
2019-05-09T16:09:21.566Z,54.08
2019-05-09T16:11:51.323Z,54.55
2019-05-09T16:14:21.077Z,54.96
2019-05-09T16:16:50.785Z,54.66
2019-05-09T16:19:20.576Z,55.76
2019-05-09T16:21:50.366Z,55.93
2019-05-09T16:24:19.812Z,56.41
2019-05-09T16:26:50.016Z,56.89
2019-05-09T16:29:19.517Z,56.78
2019-05-09T16:31:49.145Z,57.06
2019-05-09T16:34:18.978Z,56.51
2019-05-09T16:36:48.786Z,57.03
2019-05-09T16:39:18.433Z,56.44
2019-05-09T16:41:48.784Z,56.96
2019-05-09T16:44:18.726Z,56.96
2019-05-09T16:46:48.798Z,56.84
2019-05-09T16:49:19.818Z,56.82
2019-05-09T16:51:49.965Z,57.73
2019-05-09T16:54:20.176Z,58.36
2019-05-09T16:56:49.952Z,58.20
2019-05-09T16:59:19.807Z,57.96
2019-05-09T17:01:50.404Z,58.87
2019-05-09T17:04:20.270Z,59.55
2019-05-09T17:06:50.028Z,60.16
2019-05-09T17:09:19.872Z,58.96
2019-05-09T17:11:49.671Z,59.31
2019-05-09T17:14:19.586Z,60.12
2019-05-09T17:16:52.650Z,60.93
2019-05-09T17:19:20.912Z,60.36
2019-05-09T17:21:59.596Z,61.07
2019-05-09T17:24:29.929Z,60.45
2019-05-09T17:26:59.797Z,61.13
2019-05-09T17:29:29.687Z,62.27
2019-05-09T17:31:59.448Z,62.76
2019-05-09T17:34:29.250Z,63.00
2019-05-09T17:36:58.945Z,63.60
2019-05-09T17:39:28.830Z,64.05
2019-05-09T17:41:58.735Z,65.37
2019-05-09T17:44:28.314Z,66.25
2019-05-09T17:46:58.274Z,65.59
2019-05-09T17:49:28.232Z,65.37
2019-05-09T17:51:58.573Z,64.82
2019-05-09T17:54:28.917Z,65.87
2019-05-09T17:56:58.681Z,66.12
2019-05-09T17:59:29.291Z,66.62
2019-05-09T18:01:58.896Z,66.74
2019-05-09T18:04:28.993Z,66.31
2019-05-09T18:06:58.859Z,66.55
2019-05-09T18:09:28.864Z,65.87
2019-05-09T18:11:58.665Z,65.28
2019-05-09T18:14:28.439Z,65.15
2019-05-09T18:16:58.388Z,65.69
2019-05-09T18:19:29.327Z,66.35
2019-05-09T18:21:59.753Z,66.89
2019-05-09T18:24:29.431Z,66.30
2019-05-09T18:26:59.126Z,67.69
2019-05-09T18:29:28.978Z,67.83
2019-05-09T18:32:08.796Z,67.23
2019-05-09T18:34:38.247Z,67.11
2019-05-09T18:37:08.197Z,67.57
2019-05-09T18:39:38.128Z,67.27
2019-05-09T18:42:08.809Z,67.71
2019-05-09T18:44:38.604Z,67.47
2019-05-09T18:47:08.025Z,67.94
2019-05-09T18:49:37.883Z,67.93
2019-05-09T18:52:07.793Z,67.64
2019-05-09T18:54:37.650Z,67.76
2019-05-09T18:57:07.346Z,66.95
2019-05-09T18:59:36.797Z,67.16
2019-05-09T19:02:06.747Z,67.43
2019-05-09T19:04:36.523Z,68.03
2019-05-09T19:07:21.314Z,67.86
2019-05-09T19:09:37.748Z,67.81
2019-05-09T19:12:07.481Z,67.25
2019-05-09T19:14:37.341Z,66.47
2019-05-09T19:17:29.203Z,66.80
2019-05-09T19:20:16.589Z,67.27
2019-05-09T19:22:46.411Z,67.25
2019-05-09T19:25:16.507Z,67.34
2019-05-09T19:27:46.386Z,67.42
2019-05-09T19:30:15.894Z,67.92
2019-05-09T19:32:45.309Z,66.49
2019-05-09T19:35:15.388Z,67.51
2019-05-09T19:37:45.155Z,67.72
2019-05-09T19:40:20.019Z,67.34
2019-05-09T19:42:46.645Z,67.54
2019-05-09T19:45:17.082Z,67.60
2019-05-09T19:47:46.597Z,67.96
2019-05-09T19:50:16.608Z,67.26
2019-05-09T19:52:46.307Z,66.97
2019-05-09T19:55:15.838Z,66.88
2019-05-09T19:57:45.457Z,68.02
2019-05-09T20:00:17.343Z,69.25
2019-05-09T20:02:46.880Z,70.15
2019-05-09T20:05:17.055Z,70.61
2019-05-09T20:07:46.479Z,70.44
2019-05-09T20:10:44.416Z,70.51
2019-05-09T20:13:38.902Z,70.81
2019-05-09T20:16:08.803Z,71.42
2019-05-09T20:18:38.240Z,71.95
2019-05-09T20:21:07.659Z,72.35
2019-05-09T20:23:37.425Z,72.48
2019-05-09T20:26:07.007Z,72.80
2019-05-09T20:28:36.717Z,73.80
2019-05-09T20:31:06.457Z,73.34
2019-05-09T20:33:36.241Z,73.17
2019-05-09T20:36:06.026Z,72.89
2019-05-09T20:38:35.908Z,72.87
2019-05-09T20:41:05.583Z,72.94
2019-05-09T20:43:35.462Z,73.20
2019-05-09T20:46:05.389Z,72.96
2019-05-09T20:48:35.241Z,72.99
2019-05-09T20:51:05.045Z,73.22
2019-05-09T20:53:34.638Z,72.97
2019-05-09T20:56:04.743Z,72.72
2019-05-09T20:58:34.766Z,72.93
2019-05-09T21:01:04.770Z,73.37
2019-05-09T21:03:34.551Z,73.56
2019-05-09T21:06:04.176Z,73.94
2019-05-09T21:08:34.617Z,74.17
2019-05-09T21:11:04.318Z,73.38
2019-05-09T21:13:47.325Z,73.53
2019-05-09T21:16:06.053Z,73.10
2019-05-09T21:18:35.818Z,73.35
2019-05-09T21:21:05.918Z,73.72
2019-05-09T21:23:35.951Z,74.55
2019-05-09T21:26:05.961Z,75.38
2019-05-09T21:28:35.643Z,74.25
2019-05-09T21:31:05.456Z,74.80
2019-05-09T21:33:35.463Z,74.68
2019-05-09T21:36:05.215Z,74.13
2019-05-09T21:38:34.702Z,74.20
2019-05-09T21:41:04.488Z,74.11
2019-05-09T21:43:34.013Z,73.41
2019-05-09T21:46:03.507Z,74.59
2019-05-09T21:48:33.246Z,74.59
2019-05-09T21:51:02.753Z,73.72
2019-05-09T21:53:40.450Z,74.03
2019-05-09T21:56:04.108Z,75.33
2019-05-09T21:58:33.824Z,75.51
2019-05-09T22:01:04.054Z,75.54
2019-05-09T22:03:33.763Z,75.24
2019-05-09T22:06:03.392Z,75.25
2019-05-09T22:08:32.851Z,76.16
2019-05-09T22:11:02.302Z,76.89
2019-05-09T22:13:32.031Z,77.27
2019-05-09T22:16:01.780Z,77.44
2019-05-09T22:18:31.496Z,78.18
2019-05-09T22:21:00.989Z,77.19
2019-05-09T22:23:30.852Z,76.64
2019-05-09T22:26:00.726Z,76.29
2019-05-09T22:28:30.151Z,76.22
2019-05-09T22:30:59.575Z,76.33
2019-05-09T22:33:29.260Z,76.42
2019-05-09T22:35:58.767Z,76.42
2019-05-09T22:38:28.195Z,76.67
2019-05-09T22:40:58.050Z,77.10
2019-05-09T22:43:27.654Z,77.05
2019-05-09T22:45:57.433Z,77.34
2019-05-09T22:48:27.188Z,77.64
2019-05-09T22:50:56.728Z,77.43
2019-05-09T22:53:26.274Z,77.64
2019-05-09T22:55:56.094Z,78.11
2019-05-09T22:58:25.927Z,77.89
2019-05-09T23:00:55.728Z,78.15
2019-05-09T23:03:25.318Z,78.51
2019-05-09T23:05:54.832Z,78.45
2019-05-09T23:08:24.345Z,78.28
2019-05-09T23:10:54.099Z,78.59
2019-05-09T23:13:23.755Z,78.63
2019-05-09T23:15:53.622Z,78.73
2019-05-09T23:18:23.391Z,78.94
2019-05-09T23:20:55.624Z,79.12
2019-05-09T23:23:38.382Z,79.64
2019-05-09T23:26:08.289Z,79.19
2019-05-09T23:28:37.712Z,79.17
2019-05-09T23:31:11.503Z,79.44
2019-05-09T23:33:42.443Z,80.11
2019-05-09T23:36:11.937Z,79.70
2019-05-09T23:39:00.704Z,80.07
2019-05-09T23:41:30.454Z,79.82
2019-05-09T23:44:00.221Z,80.24
2019-05-09T23:46:29.718Z,80.01
2019-05-09T23:48:59.510Z,80.41
2019-05-09T23:51:45.040Z,79.94
2019-05-09T23:54:45.226Z,79.55
2019-05-09T23:57:24.075Z,79.19
